sensor_id;sensor_type;location;lat;lon;timestamp;P1;durP1;ratioP1;P2;durP2;ratioP2
60370;SDS011;48550;40.588;49.684;2022-10-26T00:00:28;17.00;;;10.07;;
60370;SDS011;48550;40.588;49.684;2022-10-26T00:02:54;19.38;;;10.38;;
60370;SDS011;48550;40.588;49.684;2022-10-26T00:05:21;16.77;;;9.80;;
60370;SDS011;48550;40.588;49.684;2022-10-26T00:07:48;18.08;;;10.52;;
60370;SDS011;48550;40.588;49.684;2022-10-26T00:10:14;20.08;;;10.15;;
60370;SDS011;48550;40.588;49.684;2022-10-26T00:12:40;16.05;;;10.13;;
60370;SDS011;48550;40.588;49.684;2022-10-26T00:15:06;19.17;;;10.25;;
60370;SDS011;48550;40.588;49.684;2022-10-26T00:17:32;22.73;;;12.27;;
60370;SDS011;48550;40.588;49.684;2022-10-26T00:19:58;17.33;;;10.70;;
60370;SDS011;48550;40.588;49.684;2022-10-26T00:22:25;19.20;;;11.15;;
60370;SDS011;48550;40.588;49.684;2022-10-26T00:24:51;17.77;;;10.70;;
60370;SDS011;48550;40.588;49.684;2022-10-26T00:27:17;16.92;;;10.55;;
60370;SDS011;48550;40.588;49.684;2022-10-26T00:29:43;14.90;;;10.27;;
60370;SDS011;48550;40.588;49.684;2022-10-26T00:32:09;16.25;;;10.50;;
60370;SDS011;48550;40.588;49.684;2022-10-26T00:34:35;16.50;;;9.93;;
60370;SDS011;48550;40.588;49.684;2022-10-26T00:37:00;14.57;;;9.90;;
60370;SDS011;48550;40.588;49.684;2022-10-26T00:39:26;17.92;;;9.93;;
60370;SDS011;48550;40.588;49.684;2022-10-26T00:41:52;18.65;;;9.25;;
60370;SDS011;48550;40.588;49.684;2022-10-26T00:47:57;23.13;;;10.80;;
60370;SDS011;48550;40.588;49.684;2022-10-26T00:50:10;21.95;;;12.48;;
60370;SDS011;48550;40.588;49.684;2022-10-26T00:52:47;30.63;;;14.70;;
60370;SDS011;48550;40.588;49.684;2022-10-26T00:55:14;30.90;;;17.60;;
60370;SDS011;48550;40.588;49.684;2022-10-26T00:57:45;30.40;;;16.77;;
60370;SDS011;48550;40.588;49.684;2022-10-26T01:00:12;27.58;;;15.25;;
60370;SDS011;48550;40.588;49.684;2022-10-26T01:02:38;23.20;;;12.38;;
60370;SDS011;48550;40.588;49.684;2022-10-26T01:05:05;21.85;;;11.75;;
60370;SDS011;48550;40.588;49.684;2022-10-26T01:07:31;30.48;;;11.75;;
60370;SDS011;48550;40.588;49.684;2022-10-26T01:09:58;21.23;;;12.00;;
60370;SDS011;48550;40.588;49.684;2022-10-26T01:12:25;23.52;;;13.05;;
60370;SDS011;48550;40.588;49.684;2022-10-26T01:14:50;25.50;;;13.13;;
60370;SDS011;48550;40.588;49.684;2022-10-26T01:31:31;20.00;;;9.88;;
60370;SDS011;48550;40.588;49.684;2022-10-26T01:34:08;17.85;;;9.40;;
60370;SDS011;48550;40.588;49.684;2022-10-26T01:36:46;17.58;;;9.77;;
60370;SDS011;48550;40.588;49.684;2022-10-26T01:39:22;17.50;;;9.13;;
60370;SDS011;48550;40.588;49.684;2022-10-26T01:42:01;14.65;;;8.85;;
60370;SDS011;48550;40.588;49.684;2022-10-26T01:44:31;13.15;;;8.05;;
60370;SDS011;48550;40.588;49.684;2022-10-26T01:47:03;16.88;;;9.38;;
60370;SDS011;48550;40.588;49.684;2022-10-26T01:49:33;17.02;;;8.80;;
60370;SDS011;48550;40.588;49.684;2022-10-26T01:52:03;13.63;;;8.52;;
60370;SDS011;48550;40.588;49.684;2022-10-26T01:54:29;14.38;;;8.98;;
60370;SDS011;48550;40.588;49.684;2022-10-26T01:56:59;15.30;;;8.80;;
60370;SDS011;48550;40.588;49.684;2022-10-26T02:05:50;17.45;;;9.80;;
60370;SDS011;48550;40.588;49.684;2022-10-26T02:11:46;16.27;;;9.90;;
60370;SDS011;48550;40.588;49.684;2022-10-26T02:17:11;20.60;;;9.52;;
60370;SDS011;48550;40.588;49.684;2022-10-26T02:20:00;18.38;;;10.75;;
60370;SDS011;48550;40.588;49.684;2022-10-26T02:22:31;22.48;;;10.80;;
60370;SDS011;48550;40.588;49.684;2022-10-26T02:24:58;17.48;;;9.75;;
60370;SDS011;48550;40.588;49.684;2022-10-26T02:27:30;18.10;;;9.20;;
60370;SDS011;48550;40.588;49.684;2022-10-26T02:30:02;18.15;;;9.43;;
60370;SDS011;48550;40.588;49.684;2022-10-26T02:32:30;21.13;;;10.60;;
60370;SDS011;48550;40.588;49.684;2022-10-26T02:35:00;21.73;;;12.40;;
60370;SDS011;48550;40.588;49.684;2022-10-26T02:37:27;22.65;;;12.15;;
60370;SDS011;48550;40.588;49.684;2022-10-26T02:39:54;30.40;;;13.43;;
60370;SDS011;48550;40.588;49.684;2022-10-26T02:42:22;25.27;;;12.98;;
60370;SDS011;48550;40.588;49.684;2022-10-26T02:44:50;28.15;;;13.75;;
60370;SDS011;48550;40.588;49.684;2022-10-26T02:47:22;22.52;;;12.82;;
60370;SDS011;48550;40.588;49.684;2022-10-26T02:49:50;36.33;;;14.48;;
60370;SDS011;48550;40.588;49.684;2022-10-26T02:55:06;28.73;;;12.95;;
60370;SDS011;48550;40.588;49.684;2022-10-26T02:57:35;25.33;;;14.15;;
60370;SDS011;48550;40.588;49.684;2022-10-26T03:00:06;26.73;;;14.82;;
60370;SDS011;48550;40.588;49.684;2022-10-26T03:02:34;23.98;;;13.50;;
60370;SDS011;48550;40.588;49.684;2022-10-26T03:05:19;24.55;;;14.70;;
60370;SDS011;48550;40.588;49.684;2022-10-26T03:07:49;25.20;;;14.07;;
60370;SDS011;48550;40.588;49.684;2022-10-26T03:10:14;25.13;;;13.57;;
60370;SDS011;48550;40.588;49.684;2022-10-26T03:12:40;26.27;;;12.38;;
60370;SDS011;48550;40.588;49.684;2022-10-26T03:15:06;29.42;;;13.23;;
60370;SDS011;48550;40.588;49.684;2022-10-26T03:17:32;28.20;;;13.20;;
60370;SDS011;48550;40.588;49.684;2022-10-26T03:19:58;26.20;;;14.40;;
60370;SDS011;48550;40.588;49.684;2022-10-26T03:22:23;25.70;;;13.95;;
60370;SDS011;48550;40.588;49.684;2022-10-26T03:24:49;29.33;;;14.77;;
60370;SDS011;48550;40.588;49.684;2022-10-26T03:27:15;25.17;;;14.32;;
60370;SDS011;48550;40.588;49.684;2022-10-26T03:29:40;30.02;;;15.55;;
60370;SDS011;48550;40.588;49.684;2022-10-26T03:32:06;38.15;;;16.00;;
60370;SDS011;48550;40.588;49.684;2022-10-26T03:34:33;40.38;;;16.17;;
60370;SDS011;48550;40.588;49.684;2022-10-26T03:36:58;32.97;;;16.17;;
60370;SDS011;48550;40.588;49.684;2022-10-26T03:39:24;33.75;;;17.70;;
60370;SDS011;48550;40.588;49.684;2022-10-26T03:41:50;37.30;;;19.58;;
60370;SDS011;48550;40.588;49.684;2022-10-26T03:44:16;45.78;;;21.45;;
60370;SDS011;48550;40.588;49.684;2022-10-26T03:46:41;54.00;;;24.10;;
60370;SDS011;48550;40.588;49.684;2022-10-26T03:49:07;36.45;;;18.65;;
60370;SDS011;48550;40.588;49.684;2022-10-26T03:51:33;38.70;;;18.90;;
60370;SDS011;48550;40.588;49.684;2022-10-26T03:53:58;32.33;;;17.40;;
60370;SDS011;48550;40.588;49.684;2022-10-26T03:56:24;41.92;;;17.70;;
60370;SDS011;48550;40.588;49.684;2022-10-26T03:58:50;32.13;;;15.57;;
60370;SDS011;48550;40.588;49.684;2022-10-26T04:01:16;39.80;;;17.55;;
60370;SDS011;48550;40.588;49.684;2022-10-26T04:03:42;36.40;;;16.60;;
60370;SDS011;48550;40.588;49.684;2022-10-26T04:06:08;36.35;;;17.60;;
60370;SDS011;48550;40.588;49.684;2022-10-26T04:08:33;36.67;;;18.38;;
60370;SDS011;48550;40.588;49.684;2022-10-26T04:10:59;46.20;;;17.95;;
60370;SDS011;48550;40.588;49.684;2022-10-26T04:13:25;29.65;;;16.13;;
60370;SDS011;48550;40.588;49.684;2022-10-26T04:15:51;33.00;;;15.65;;
60370;SDS011;48550;40.588;49.684;2022-10-26T04:18:17;34.83;;;15.63;;
60370;SDS011;48550;40.588;49.684;2022-10-26T04:20:43;45.30;;;15.25;;
60370;SDS011;48550;40.588;49.684;2022-10-26T04:23:10;36.80;;;15.85;;
60370;SDS011;48550;40.588;49.684;2022-10-26T04:25:37;37.63;;;15.00;;
60370;SDS011;48550;40.588;49.684;2022-10-26T04:28:03;29.65;;;15.00;;
60370;SDS011;48550;40.588;49.684;2022-10-26T04:30:31;39.83;;;17.98;;
60370;SDS011;48550;40.588;49.684;2022-10-26T04:32:57;37.08;;;18.73;;
60370;SDS011;48550;40.588;49.684;2022-10-26T04:35:24;35.60;;;17.00;;
60370;SDS011;48550;40.588;49.684;2022-10-26T04:37:50;39.80;;;18.15;;
60370;SDS011;48550;40.588;49.684;2022-10-26T04:40:16;46.30;;;18.60;;
60370;SDS011;48550;40.588;49.684;2022-10-26T04:42:45;35.97;;;15.27;;
60370;SDS011;48550;40.588;49.684;2022-10-26T04:45:12;33.47;;;16.25;;
60370;SDS011;48550;40.588;49.684;2022-10-26T04:47:39;40.20;;;17.50;;
60370;SDS011;48550;40.588;49.684;2022-10-26T04:50:06;42.85;;;17.45;;
60370;SDS011;48550;40.588;49.684;2022-10-26T04:52:33;35.30;;;14.55;;
60370;SDS011;48550;40.588;49.684;2022-10-26T04:54:59;32.88;;;14.90;;
60370;SDS011;48550;40.588;49.684;2022-10-26T04:57:25;38.88;;;18.85;;
60370;SDS011;48550;40.588;49.684;2022-10-26T04:59:51;28.30;;;13.38;;
60370;SDS011;48550;40.588;49.684;2022-10-26T05:02:16;24.73;;;12.98;;
60370;SDS011;48550;40.588;49.684;2022-10-26T05:04:42;24.83;;;14.43;;
60370;SDS011;48550;40.588;49.684;2022-10-26T05:07:08;22.23;;;12.88;;
60370;SDS011;48550;40.588;49.684;2022-10-26T05:09:34;29.73;;;13.45;;
60370;SDS011;48550;40.588;49.684;2022-10-26T05:11:59;27.13;;;13.57;;
60370;SDS011;48550;40.588;49.684;2022-10-26T05:14:25;23.77;;;13.05;;
60370;SDS011;48550;40.588;49.684;2022-10-26T05:16:51;22.50;;;13.40;;
60370;SDS011;48550;40.588;49.684;2022-10-26T05:19:19;26.80;;;14.23;;
60370;SDS011;48550;40.588;49.684;2022-10-26T05:21:45;25.10;;;13.73;;
60370;SDS011;48550;40.588;49.684;2022-10-26T05:24:11;32.67;;;17.27;;
60370;SDS011;48550;40.588;49.684;2022-10-26T05:26:36;22.98;;;12.43;;
60370;SDS011;48550;40.588;49.684;2022-10-26T05:29:02;24.00;;;11.48;;
60370;SDS011;48550;40.588;49.684;2022-10-26T05:31:28;31.38;;;11.07;;
60370;SDS011;48550;40.588;49.684;2022-10-26T05:33:54;22.42;;;11.48;;
60370;SDS011;48550;40.588;49.684;2022-10-26T05:36:19;30.05;;;12.63;;
60370;SDS011;48550;40.588;49.684;2022-10-26T05:38:45;26.13;;;12.93;;
60370;SDS011;48550;40.588;49.684;2022-10-26T05:41:11;28.83;;;13.38;;
60370;SDS011;48550;40.588;49.684;2022-10-26T05:43:37;26.38;;;13.73;;
60370;SDS011;48550;40.588;49.684;2022-10-26T05:46:03;26.55;;;12.45;;
60370;SDS011;48550;40.588;49.684;2022-10-26T05:48:29;22.65;;;11.65;;
60370;SDS011;48550;40.588;49.684;2022-10-26T05:50:58;21.63;;;11.73;;
60370;SDS011;48550;40.588;49.684;2022-10-26T05:53:25;28.60;;;11.95;;
60370;SDS011;48550;40.588;49.684;2022-10-26T05:55:53;24.23;;;12.43;;
60370;SDS011;48550;40.588;49.684;2022-10-26T05:58:20;27.98;;;12.90;;
60370;SDS011;48550;40.588;49.684;2022-10-26T06:06:01;35.58;;;15.10;;
60370;SDS011;48550;40.588;49.684;2022-10-26T06:08:27;17.42;;;10.48;;
60370;SDS011;48550;40.588;49.684;2022-10-26T06:10:54;17.98;;;8.85;;
60370;SDS011;48550;40.588;49.684;2022-10-26T06:13:23;19.05;;;8.43;;
60370;SDS011;48550;40.588;49.684;2022-10-26T06:31:57;19.75;;;9.23;;
60370;SDS011;48550;40.588;49.684;2022-10-26T06:34:24;25.25;;;8.00;;
60370;SDS011;48550;40.588;49.684;2022-10-26T06:36:55;16.08;;;7.63;;
60370;SDS011;48550;40.588;49.684;2022-10-26T06:39:22;15.93;;;6.90;;
60370;SDS011;48550;40.588;49.684;2022-10-26T06:41:52;17.52;;;7.20;;
60370;SDS011;48550;40.588;49.684;2022-10-26T06:44:22;19.02;;;6.97;;
60370;SDS011;48550;40.588;49.684;2022-10-26T06:47:08;17.75;;;6.95;;
60370;SDS011;48550;40.588;49.684;2022-10-26T06:49:57;13.10;;;6.35;;
60370;SDS011;48550;40.588;49.684;2022-10-26T06:52:39;15.52;;;6.50;;
60370;SDS011;48550;40.588;49.684;2022-10-26T06:55:38;16.92;;;5.55;;
60370;SDS011;48550;40.588;49.684;2022-10-26T06:58:14;139.38;;;12.55;;
60370;SDS011;48550;40.588;49.684;2022-10-26T07:00:43;54.20;;;8.48;;
60370;SDS011;48550;40.588;49.684;2022-10-26T07:03:11;14.93;;;7.40;;
60370;SDS011;48550;40.588;49.684;2022-10-26T07:05:36;12.63;;;6.20;;
60370;SDS011;48550;40.588;49.684;2022-10-26T07:08:03;7.05;;;3.70;;
60370;SDS011;48550;40.588;49.684;2022-10-26T07:10:29;6.40;;;3.70;;
60370;SDS011;48550;40.588;49.684;2022-10-26T07:12:55;13.23;;;4.03;;
60370;SDS011;48550;40.588;49.684;2022-10-26T07:15:21;13.52;;;5.35;;
60370;SDS011;48550;40.588;49.684;2022-10-26T07:17:47;9.02;;;4.00;;
60370;SDS011;48550;40.588;49.684;2022-10-26T07:20:14;6.55;;;3.83;;
60370;SDS011;48550;40.588;49.684;2022-10-26T07:22:41;11.10;;;4.40;;
60370;SDS011;48550;40.588;49.684;2022-10-26T07:25:07;9.02;;;4.32;;
60370;SDS011;48550;40.588;49.684;2022-10-26T07:27:34;8.02;;;4.47;;
60370;SDS011;48550;40.588;49.684;2022-10-26T07:30:00;11.50;;;3.40;;
60370;SDS011;48550;40.588;49.684;2022-10-26T07:32:26;11.48;;;4.18;;
60370;SDS011;48550;40.588;49.684;2022-10-26T07:34:52;9.90;;;4.45;;
60370;SDS011;48550;40.588;49.684;2022-10-26T07:37:17;11.05;;;4.25;;
60370;SDS011;48550;40.588;49.684;2022-10-26T07:39:43;13.30;;;5.40;;
60370;SDS011;48550;40.588;49.684;2022-10-26T07:42:09;8.52;;;4.72;;
60370;SDS011;48550;40.588;49.684;2022-10-26T07:44:35;18.25;;;7.18;;
60370;SDS011;48550;40.588;49.684;2022-10-26T07:47:00;10.60;;;4.07;;
60370;SDS011;48550;40.588;49.684;2022-10-26T07:49:26;9.43;;;4.32;;
60370;SDS011;48550;40.588;49.684;2022-10-26T07:51:51;8.88;;;4.07;;
60370;SDS011;48550;40.588;49.684;2022-10-26T07:54:17;10.65;;;5.53;;
60370;SDS011;48550;40.588;49.684;2022-10-26T07:56:43;16.00;;;7.80;;
60370;SDS011;48550;40.588;49.684;2022-10-26T07:59:10;11.93;;;3.90;;
60370;SDS011;48550;40.588;49.684;2022-10-26T08:01:37;8.73;;;3.60;;
60370;SDS011;48550;40.588;49.684;2022-10-26T08:04:02;10.88;;;4.50;;
60370;SDS011;48550;40.588;49.684;2022-10-26T08:06:28;8.82;;;3.95;;
60370;SDS011;48550;40.588;49.684;2022-10-26T08:08:54;9.38;;;3.83;;
60370;SDS011;48550;40.588;49.684;2022-10-26T08:11:20;12.13;;;4.00;;
60370;SDS011;48550;40.588;49.684;2022-10-26T08:13:45;5.50;;;2.95;;
60370;SDS011;48550;40.588;49.684;2022-10-26T08:16:11;8.70;;;3.60;;
60370;SDS011;48550;40.588;49.684;2022-10-26T08:18:37;9.90;;;3.70;;
60370;SDS011;48550;40.588;49.684;2022-10-26T08:21:04;6.85;;;3.53;;
60370;SDS011;48550;40.588;49.684;2022-10-26T08:23:32;6.00;;;3.40;;
60370;SDS011;48550;40.588;49.684;2022-10-26T08:25:58;17.77;;;4.30;;
60370;SDS011;48550;40.588;49.684;2022-10-26T08:28:25;10.65;;;3.50;;
60370;SDS011;48550;40.588;49.684;2022-10-26T08:30:51;10.30;;;3.33;;
60370;SDS011;48550;40.588;49.684;2022-10-26T08:33:17;9.00;;;3.85;;
60370;SDS011;48550;40.588;49.684;2022-10-26T08:35:42;7.43;;;3.63;;
60370;SDS011;48550;40.588;49.684;2022-10-26T08:38:08;7.70;;;4.15;;
60370;SDS011;48550;40.588;49.684;2022-10-26T08:40:35;12.68;;;3.88;;
60370;SDS011;48550;40.588;49.684;2022-10-26T08:46:02;10.85;;;4.05;;
60370;SDS011;48550;40.588;49.684;2022-10-26T08:48:34;9.40;;;4.57;;
60370;SDS011;48550;40.588;49.684;2022-10-26T08:51:09;10.93;;;3.92;;
60370;SDS011;48550;40.588;49.684;2022-10-26T08:58:46;14.30;;;4.47;;
60370;SDS011;48550;40.588;49.684;2022-10-26T09:01:17;11.90;;;4.88;;
60370;SDS011;48550;40.588;49.684;2022-10-26T09:03:43;6.40;;;3.35;;
60370;SDS011;48550;40.588;49.684;2022-10-26T09:08:55;8.23;;;3.70;;
60370;SDS011;48550;40.588;49.684;2022-10-26T09:14:30;9.38;;;3.85;;
60370;SDS011;48550;40.588;49.684;2022-10-26T09:24:52;10.18;;;5.25;;
60370;SDS011;48550;40.588;49.684;2022-10-26T09:27:22;8.93;;;4.60;;
60370;SDS011;48550;40.588;49.684;2022-10-26T09:29:52;17.15;;;5.30;;
60370;SDS011;48550;40.588;49.684;2022-10-26T09:32:33;12.68;;;5.18;;
60370;SDS011;48550;40.588;49.684;2022-10-26T09:35:04;11.80;;;4.88;;
60370;SDS011;48550;40.588;49.684;2022-10-26T09:38:02;9.32;;;4.13;;
60370;SDS011;48550;40.588;49.684;2022-10-26T09:43:16;8.80;;;3.60;;
60370;SDS011;48550;40.588;49.684;2022-10-26T09:45:52;9.95;;;4.30;;
60370;SDS011;48550;40.588;49.684;2022-10-26T09:50:52;14.20;;;6.22;;
60370;SDS011;48550;40.588;49.684;2022-10-26T09:53:18;9.30;;;4.65;;
60370;SDS011;48550;40.588;49.684;2022-10-26T09:55:47;10.27;;;4.47;;
60370;SDS011;48550;40.588;49.684;2022-10-26T09:58:23;10.00;;;4.55;;
60370;SDS011;48550;40.588;49.684;2022-10-26T10:00:53;13.77;;;5.00;;
60370;SDS011;48550;40.588;49.684;2022-10-26T10:03:26;11.18;;;5.05;;
60370;SDS011;48550;40.588;49.684;2022-10-26T10:05:53;10.43;;;4.60;;
60370;SDS011;48550;40.588;49.684;2022-10-26T10:08:39;7.18;;;4.05;;
60370;SDS011;48550;40.588;49.684;2022-10-26T10:11:07;7.88;;;4.60;;
60370;SDS011;48550;40.588;49.684;2022-10-26T10:13:36;10.30;;;5.00;;
60370;SDS011;48550;40.588;49.684;2022-10-26T10:16:22;11.23;;;5.13;;
60370;SDS011;48550;40.588;49.684;2022-10-26T10:18:55;12.18;;;5.85;;
60370;SDS011;48550;40.588;49.684;2022-10-26T10:22:24;6.95;;;4.10;;
60370;SDS011;48550;40.588;49.684;2022-10-26T10:24:30;11.85;;;4.32;;
60370;SDS011;48550;40.588;49.684;2022-10-26T10:29:28;11.30;;;4.20;;
60370;SDS011;48550;40.588;49.684;2022-10-26T10:31:59;10.13;;;4.53;;
60370;SDS011;48550;40.588;49.684;2022-10-26T10:34:28;8.73;;;4.70;;
60370;SDS011;48550;40.588;49.684;2022-10-26T10:36:55;12.27;;;5.35;;
60370;SDS011;48550;40.588;49.684;2022-10-26T10:42:22;8.18;;;4.93;;
60370;SDS011;48550;40.588;49.684;2022-10-26T10:44:52;10.30;;;5.72;;
60370;SDS011;48550;40.588;49.684;2022-10-26T10:47:23;13.05;;;6.10;;
60370;SDS011;48550;40.588;49.684;2022-10-26T10:50:33;14.50;;;5.50;;
60370;SDS011;48550;40.588;49.684;2022-10-26T10:52:43;16.83;;;5.50;;
60370;SDS011;48550;40.588;49.684;2022-10-26T11:00:48;17.67;;;6.05;;
60370;SDS011;48550;40.588;49.684;2022-10-26T11:03:31;14.23;;;4.95;;
60370;SDS011;48550;40.588;49.684;2022-10-26T11:06:12;13.60;;;4.82;;
60370;SDS011;48550;40.588;49.684;2022-10-26T11:08:43;13.07;;;5.10;;
60370;SDS011;48550;40.588;49.684;2022-10-26T11:11:15;11.98;;;4.63;;
60370;SDS011;48550;40.588;49.684;2022-10-26T11:14:43;8.35;;;3.67;;
60370;SDS011;48550;40.588;49.684;2022-10-26T11:19:56;16.73;;;6.22;;
60370;SDS011;48550;40.588;49.684;2022-10-26T11:22:24;7.55;;;3.90;;
60370;SDS011;48550;40.588;49.684;2022-10-26T11:24:55;9.13;;;4.30;;
60370;SDS011;48550;40.588;49.684;2022-10-26T11:28:03;11.10;;;4.43;;
60370;SDS011;48550;40.588;49.684;2022-10-26T11:30:46;12.95;;;5.22;;
60370;SDS011;48550;40.588;49.684;2022-10-26T11:33:24;10.60;;;5.28;;
60370;SDS011;48550;40.588;49.684;2022-10-26T11:35:56;17.08;;;5.57;;
60370;SDS011;48550;40.588;49.684;2022-10-26T11:41:16;12.07;;;6.25;;
60370;SDS011;48550;40.588;49.684;2022-10-26T11:43:44;18.40;;;8.05;;
60370;SDS011;48550;40.588;49.684;2022-10-26T11:46:35;27.05;;;8.00;;
60370;SDS011;48550;40.588;49.684;2022-10-26T11:52:01;15.20;;;6.40;;
60370;SDS011;48550;40.588;49.684;2022-10-26T11:54:53;16.42;;;7.20;;
60370;SDS011;48550;40.588;49.684;2022-10-26T11:57:21;10.68;;;5.53;;
60370;SDS011;48550;40.588;49.684;2022-10-26T12:00:00;11.20;;;4.57;;
60370;SDS011;48550;40.588;49.684;2022-10-26T12:02:35;17.95;;;5.18;;
60370;SDS011;48550;40.588;49.684;2022-10-26T12:05:50;14.35;;;4.47;;
60370;SDS011;48550;40.588;49.684;2022-10-26T12:07:56;7.05;;;3.42;;
60370;SDS011;48550;40.588;49.684;2022-10-26T12:10:33;7.68;;;3.60;;
60370;SDS011;48550;40.588;49.684;2022-10-26T12:13:14;11.98;;;4.63;;
60370;SDS011;48550;40.588;49.684;2022-10-26T12:15:55;7.15;;;2.88;;
60370;SDS011;48550;40.588;49.684;2022-10-26T12:18:33;9.25;;;3.83;;
60370;SDS011;48550;40.588;49.684;2022-10-26T12:21:07;10.73;;;3.28;;
60370;SDS011;48550;40.588;49.684;2022-10-26T12:23:38;10.02;;;3.78;;
60370;SDS011;48550;40.588;49.684;2022-10-26T12:34:02;14.18;;;4.80;;
60370;SDS011;48550;40.588;49.684;2022-10-26T12:36:48;11.55;;;4.70;;
60370;SDS011;48550;40.588;49.684;2022-10-26T12:39:33;40.20;;;6.95;;
60370;SDS011;48550;40.588;49.684;2022-10-26T12:47:00;9.38;;;4.13;;
60370;SDS011;48550;40.588;49.684;2022-10-26T13:06:13;9.32;;;4.57;;
60370;SDS011;48550;40.588;49.684;2022-10-26T13:08:58;14.52;;;4.60;;
60370;SDS011;48550;40.588;49.684;2022-10-26T13:11:34;8.18;;;4.47;;
60370;SDS011;48550;40.588;49.684;2022-10-26T13:14:08;8.38;;;3.33;;
60370;SDS011;48550;40.588;49.684;2022-10-26T13:16:45;7.03;;;3.40;;
60370;SDS011;48550;40.588;49.684;2022-10-26T13:19:24;10.25;;;3.75;;
60370;SDS011;48550;40.588;49.684;2022-10-26T13:21:54;7.25;;;3.30;;
60370;SDS011;48550;40.588;49.684;2022-10-26T13:24:24;8.57;;;3.83;;
60370;SDS011;48550;40.588;49.684;2022-10-26T13:29:29;11.55;;;5.57;;
60370;SDS011;48550;40.588;49.684;2022-10-26T13:31:56;11.40;;;5.10;;
60370;SDS011;48550;40.588;49.684;2022-10-26T13:34:33;13.45;;;5.93;;
60370;SDS011;48550;40.588;49.684;2022-10-26T13:39:49;10.25;;;5.05;;
60370;SDS011;48550;40.588;49.684;2022-10-26T13:42:21;8.45;;;5.28;;
60370;SDS011;48550;40.588;49.684;2022-10-26T13:44:58;10.20;;;5.85;;
60370;SDS011;48550;40.588;49.684;2022-10-26T13:47:40;13.80;;;4.95;;
60370;SDS011;48550;40.588;49.684;2022-10-26T13:50:07;11.57;;;4.97;;
60370;SDS011;48550;40.588;49.684;2022-10-26T13:52:41;10.88;;;5.45;;
60370;SDS011;48550;40.588;49.684;2022-10-26T13:58:00;10.73;;;6.88;;
60370;SDS011;48550;40.588;49.684;2022-10-26T14:03:27;13.40;;;7.85;;
60370;SDS011;48550;40.588;49.684;2022-10-26T14:05:53;10.68;;;6.35;;
60370;SDS011;48550;40.588;49.684;2022-10-26T14:08:19;11.88;;;6.85;;
60370;SDS011;48550;40.588;49.684;2022-10-26T14:10:47;10.40;;;6.75;;
60370;SDS011;48550;40.588;49.684;2022-10-26T14:13:20;15.93;;;7.55;;
60370;SDS011;48550;40.588;49.684;2022-10-26T14:18:22;14.18;;;7.45;;
60370;SDS011;48550;40.588;49.684;2022-10-26T14:23:34;14.32;;;7.50;;
60370;SDS011;48550;40.588;49.684;2022-10-26T14:26:02;12.43;;;7.15;;
60370;SDS011;48550;40.588;49.684;2022-10-26T14:28:36;13.95;;;7.45;;
60370;SDS011;48550;40.588;49.684;2022-10-26T14:31:18;9.45;;;5.95;;
60370;SDS011;48550;40.588;49.684;2022-10-26T14:33:49;12.60;;;6.50;;
60370;SDS011;48550;40.588;49.684;2022-10-26T14:36:15;11.35;;;6.07;;
60370;SDS011;48550;40.588;49.684;2022-10-26T14:38:44;10.10;;;6.45;;
60370;SDS011;48550;40.588;49.684;2022-10-26T14:41:13;13.25;;;6.90;;
60370;SDS011;48550;40.588;49.684;2022-10-26T14:43:41;18.02;;;9.35;;
60370;SDS011;48550;40.588;49.684;2022-10-26T14:46:15;21.05;;;10.75;;
60370;SDS011;48550;40.588;49.684;2022-10-26T14:48:55;20.20;;;9.60;;
60370;SDS011;48550;40.588;49.684;2022-10-26T14:51:33;20.48;;;9.75;;
60370;SDS011;48550;40.588;49.684;2022-10-26T14:54:02;14.15;;;7.53;;
60370;SDS011;48550;40.588;49.684;2022-10-26T14:59:10;13.25;;;7.78;;
60370;SDS011;48550;40.588;49.684;2022-10-26T15:02:18;17.42;;;8.07;;
60370;SDS011;48550;40.588;49.684;2022-10-26T15:04:35;16.85;;;9.40;;
60370;SDS011;48550;40.588;49.684;2022-10-26T15:07:14;13.80;;;8.82;;
60370;SDS011;48550;40.588;49.684;2022-10-26T15:09:45;14.50;;;8.00;;
60370;SDS011;48550;40.588;49.684;2022-10-26T15:12:18;13.55;;;8.15;;
60370;SDS011;48550;40.588;49.684;2022-10-26T15:14:46;13.85;;;8.32;;
60370;SDS011;48550;40.588;49.684;2022-10-26T15:17:18;16.02;;;9.10;;
60370;SDS011;48550;40.588;49.684;2022-10-26T15:19:47;18.20;;;9.27;;
60370;SDS011;48550;40.588;49.684;2022-10-26T15:22:18;20.67;;;9.18;;
60370;SDS011;48550;40.588;49.684;2022-10-26T15:24:49;17.65;;;9.68;;
60370;SDS011;48550;40.588;49.684;2022-10-26T15:27:17;18.58;;;9.98;;
60370;SDS011;48550;40.588;49.684;2022-10-26T15:29:44;19.23;;;10.60;;
60370;SDS011;48550;40.588;49.684;2022-10-26T15:37:44;17.42;;;10.43;;
60370;SDS011;48550;40.588;49.684;2022-10-26T15:40:13;17.70;;;11.10;;
60370;SDS011;48550;40.588;49.684;2022-10-26T15:42:39;16.35;;;9.55;;
60370;SDS011;48550;40.588;49.684;2022-10-26T15:45:25;24.17;;;13.98;;
60370;SDS011;48550;40.588;49.684;2022-10-26T15:47:57;26.52;;;18.08;;
60370;SDS011;48550;40.588;49.684;2022-10-26T15:50:25;21.23;;;12.50;;
60370;SDS011;48550;40.588;49.684;2022-10-26T15:53:00;24.13;;;14.55;;
60370;SDS011;48550;40.588;49.684;2022-10-26T15:55:30;15.20;;;9.00;;
60370;SDS011;48550;40.588;49.684;2022-10-26T15:57:56;18.20;;;9.07;;
60370;SDS011;48550;40.588;49.684;2022-10-26T16:00:21;16.73;;;8.65;;
60370;SDS011;48550;40.588;49.684;2022-10-26T16:02:47;15.73;;;8.45;;
60370;SDS011;48550;40.588;49.684;2022-10-26T16:05:13;30.35;;;17.33;;
60370;SDS011;48550;40.588;49.684;2022-10-26T16:07:41;19.58;;;10.80;;
60370;SDS011;48550;40.588;49.684;2022-10-26T16:10:13;16.67;;;9.10;;
60370;SDS011;48550;40.588;49.684;2022-10-26T16:12:49;19.30;;;9.25;;
60370;SDS011;48550;40.588;49.684;2022-10-26T16:15:22;17.92;;;9.25;;
60370;SDS011;48550;40.588;49.684;2022-10-26T16:17:51;17.40;;;10.00;;
60370;SDS011;48550;40.588;49.684;2022-10-26T16:20:18;19.95;;;11.65;;
60370;SDS011;48550;40.588;49.684;2022-10-26T16:22:51;18.33;;;10.98;;
60370;SDS011;48550;40.588;49.684;2022-10-26T16:25:24;17.42;;;9.65;;
60370;SDS011;48550;40.588;49.684;2022-10-26T16:27:52;17.10;;;9.68;;
60370;SDS011;48550;40.588;49.684;2022-10-26T16:30:19;18.35;;;12.88;;
60370;SDS011;48550;40.588;49.684;2022-10-26T16:32:45;20.17;;;13.73;;
60370;SDS011;48550;40.588;49.684;2022-10-26T16:35:11;17.45;;;10.88;;
60370;SDS011;48550;40.588;49.684;2022-10-26T16:37:37;15.98;;;10.65;;
60370;SDS011;48550;40.588;49.684;2022-10-26T16:40:04;18.88;;;10.77;;
60370;SDS011;48550;40.588;49.684;2022-10-26T16:42:30;17.20;;;10.50;;
60370;SDS011;48550;40.588;49.684;2022-10-26T16:44:56;16.30;;;10.57;;
60370;SDS011;48550;40.588;49.684;2022-10-26T16:47:23;16.58;;;10.57;;
60370;SDS011;48550;40.588;49.684;2022-10-26T16:49:49;20.13;;;11.15;;
60370;SDS011;48550;40.588;49.684;2022-10-26T16:52:15;21.48;;;12.77;;
60370;SDS011;48550;40.588;49.684;2022-10-26T16:54:41;20.80;;;12.65;;
60370;SDS011;48550;40.588;49.684;2022-10-26T16:57:07;24.33;;;12.50;;
60370;SDS011;48550;40.588;49.684;2022-10-26T16:59:33;22.90;;;13.32;;
60370;SDS011;48550;40.588;49.684;2022-10-26T17:01:59;23.52;;;12.55;;
60370;SDS011;48550;40.588;49.684;2022-10-26T17:04:25;24.27;;;13.38;;
60370;SDS011;48550;40.588;49.684;2022-10-26T17:06:50;22.65;;;12.85;;
60370;SDS011;48550;40.588;49.684;2022-10-26T17:09:16;23.15;;;12.40;;